sensor_id;sensor_type;location;lat;lon;timestamp;temperature;humidity
19862;DHT22;10093;48.148;8.542;2023-12-28T00:00:33;2.80;99.90
19862;DHT22;10093;48.148;8.542;2023-12-28T00:02:59;2.60;99.90
19862;DHT22;10093;48.148;8.542;2023-12-28T00:05:24;2.50;99.90
19862;DHT22;10093;48.148;8.542;2023-12-28T00:07:50;2.50;99.90
19862;DHT22;10093;48.148;8.542;2023-12-28T00:10:23;2.60;99.90
19862;DHT22;10093;48.148;8.542;2023-12-28T00:12:48;2.70;99.90
19862;DHT22;10093;48.148;8.542;2023-12-28T00:15:14;2.70;99.90
19862;DHT22;10093;48.148;8.542;2023-12-28T00:17:40;2.90;99.90
19862;DHT22;10093;48.148;8.542;2023-12-28T00:20:06;3.10;99.90
19862;DHT22;10093;48.148;8.542;2023-12-28T00:22:31;3.20;99.90
19862;DHT22;10093;48.148;8.542;2023-12-28T00:24:57;3.10;99.90
19862;DHT22;10093;48.148;8.542;2023-12-28T00:27:23;3.00;99.90
19862;DHT22;10093;48.148;8.542;2023-12-28T00:29:48;3.00;99.90
19862;DHT22;10093;48.148;8.542;2023-12-28T00:32:14;3.20;99.90
19862;DHT22;10093;48.148;8.542;2023-12-28T00:34:39;3.30;99.90
19862;DHT22;10093;48.148;8.542;2023-12-28T00:37:05;3.30;99.90
19862;DHT22;10093;48.148;8.542;2023-12-28T00:39:31;3.20;99.90
19862;DHT22;10093;48.148;8.542;2023-12-28T00:41:56;3.40;99.90
19862;DHT22;10093;48.148;8.542;2023-12-28T00:44:22;3.60;99.90
19862;DHT22;10093;48.148;8.542;2023-12-28T00:46:47;3.70;99.90
19862;DHT22;10093;48.148;8.542;2023-12-28T00:49:13;4.10;99.90
19862;DHT22;10093;48.148;8.542;2023-12-28T00:51:39;4.40;99.90
19862;DHT22;10093;48.148;8.542;2023-12-28T00:54:04;4.50;99.90
19862;DHT22;10093;48.148;8.542;2023-12-28T00:56:30;4.50;99.90
19862;DHT22;10093;48.148;8.542;2023-12-28T00:58:55;4.90;99.90
19862;DHT22;10093;48.148;8.542;2023-12-28T01:01:21;5.00;99.90
19862;DHT22;10093;48.148;8.542;2023-12-28T01:03:47;5.10;99.90
19862;DHT22;10093;48.148;8.542;2023-12-28T01:06:12;5.10;99.90
19862;DHT22;10093;48.148;8.542;2023-12-28T01:08:38;5.10;99.90
19862;DHT22;10093;48.148;8.542;2023-12-28T01:11:04;5.20;99.90
19862;DHT22;10093;48.148;8.542;2023-12-28T01:13:29;5.30;99.90
19862;DHT22;10093;48.148;8.542;2023-12-28T01:15:56;5.80;99.90
19862;DHT22;10093;48.148;8.542;2023-12-28T01:18:21;5.80;99.90
19862;DHT22;10093;48.148;8.542;2023-12-28T01:20:47;6.00;99.90
19862;DHT22;10093;48.148;8.542;2023-12-28T01:23:12;6.00;99.90
19862;DHT22;10093;48.148;8.542;2023-12-28T01:25:38;6.10;99.90
19862;DHT22;10093;48.148;8.542;2023-12-28T01:28:04;6.30;99.90
19862;DHT22;10093;48.148;8.542;2023-12-28T01:30:31;6.50;99.90
19862;DHT22;10093;48.148;8.542;2023-12-28T01:32:56;6.60;99.90
19862;DHT22;10093;48.148;8.542;2023-12-28T01:35:22;6.70;99.90
19862;DHT22;10093;48.148;8.542;2023-12-28T01:37:47;6.60;99.90
19862;DHT22;10093;48.148;8.542;2023-12-28T01:40:15;6.30;99.90
19862;DHT22;10093;48.148;8.542;2023-12-28T01:42:41;6.50;99.90
19862;DHT22;10093;48.148;8.542;2023-12-28T01:45:07;6.50;99.90
19862;DHT22;10093;48.148;8.542;2023-12-28T01:47:34;6.30;99.90
19862;DHT22;10093;48.148;8.542;2023-12-28T01:49:59;6.40;99.90
19862;DHT22;10093;48.148;8.542;2023-12-28T01:52:26;6.60;99.90
19862;DHT22;10093;48.148;8.542;2023-12-28T01:54:51;7.20;99.90
19862;DHT22;10093;48.148;8.542;2023-12-28T01:57:17;6.80;99.90
19862;DHT22;10093;48.148;8.542;2023-12-28T01:59:44;7.10;99.90
19862;DHT22;10093;48.148;8.542;2023-12-28T02:02:10;7.70;99.90
19862;DHT22;10093;48.148;8.542;2023-12-28T02:04:36;7.40;99.90
19862;DHT22;10093;48.148;8.542;2023-12-28T02:07:02;6.90;99.90
19862;DHT22;10093;48.148;8.542;2023-12-28T02:09:27;6.90;99.90
19862;DHT22;10093;48.148;8.542;2023-12-28T02:11:54;6.70;99.90
19862;DHT22;10093;48.148;8.542;2023-12-28T02:14:20;7.30;99.90
19862;DHT22;10093;48.148;8.542;2023-12-28T02:16:57;7.20;99.90
19862;DHT22;10093;48.148;8.542;2023-12-28T02:19:39;7.50;99.90
19862;DHT22;10093;48.148;8.542;2023-12-28T02:22:07;8.30;99.90
19862;DHT22;10093;48.148;8.542;2023-12-28T02:24:58;8.00;99.90
19862;DHT22;10093;48.148;8.542;2023-12-28T02:27:23;7.90;99.90
19862;DHT22;10093;48.148;8.542;2023-12-28T02:29:49;7.40;99.90
19862;DHT22;10093;48.148;8.542;2023-12-28T02:32:16;7.00;99.90
19862;DHT22;10093;48.148;8.542;2023-12-28T02:34:44;6.90;99.90
19862;DHT22;10093;48.148;8.542;2023-12-28T02:37:12;7.60;99.90
19862;DHT22;10093;48.148;8.542;2023-12-28T02:39:41;7.50;99.90
19862;DHT22;10093;48.148;8.542;2023-12-28T02:42:07;7.20;99.90
19862;DHT22;10093;48.148;8.542;2023-12-28T02:44:33;7.30;99.90
19862;DHT22;10093;48.148;8.542;2023-12-28T02:46:59;7.40;99.90
19862;DHT22;10093;48.148;8.542;2023-12-28T02:49:24;7.40;99.90
19862;DHT22;10093;48.148;8.542;2023-12-28T02:51:50;7.40;99.90
19862;DHT22;10093;48.148;8.542;2023-12-28T02:54:15;7.20;99.90
19862;DHT22;10093;48.148;8.542;2023-12-28T02:56:41;6.90;99.90
19862;DHT22;10093;48.148;8.542;2023-12-28T02:59:06;6.40;99.90
19862;DHT22;10093;48.148;8.542;2023-12-28T03:01:32;6.20;99.90
19862;DHT22;10093;48.148;8.542;2023-12-28T03:03:58;6.30;99.90
19862;DHT22;10093;48.148;8.542;2023-12-28T03:06:23;6.40;99.90
19862;DHT22;10093;48.148;8.542;2023-12-28T03:08:49;6.10;99.90
19862;DHT22;10093;48.148;8.542;2023-12-28T03:11:14;5.80;99.90
19862;DHT22;10093;48.148;8.542;2023-12-28T03:13:40;5.20;99.90
19862;DHT22;10093;48.148;8.542;2023-12-28T03:16:06;5.30;99.90
19862;DHT22;10093;48.148;8.542;2023-12-28T03:18:32;5.10;99.90
19862;DHT22;10093;48.148;8.542;2023-12-28T03:20:57;5.10;99.90
19862;DHT22;10093;48.148;8.542;2023-12-28T03:23:23;5.70;99.90
19862;DHT22;10093;48.148;8.542;2023-12-28T03:25:48;6.20;99.90
19862;DHT22;10093;48.148;8.542;2023-12-28T03:28:14;6.10;99.90
19862;DHT22;10093;48.148;8.542;2023-12-28T03:30:39;6.10;99.90
19862;DHT22;10093;48.148;8.542;2023-12-28T03:33:05;6.10;99.90
19862;DHT22;10093;48.148;8.542;2023-12-28T03:35:31;6.00;99.90
19862;DHT22;10093;48.148;8.542;2023-12-28T03:37:56;6.50;99.90
19862;DHT22;10093;48.148;8.542;2023-12-28T03:40:22;7.20;99.90
19862;DHT22;10093;48.148;8.542;2023-12-28T03:42:47;7.20;99.90
19862;DHT22;10093;48.148;8.542;2023-12-28T03:45:13;6.70;99.90
19862;DHT22;10093;48.148;8.542;2023-12-28T03:47:38;6.20;99.90
19862;DHT22;10093;48.148;8.542;2023-12-28T03:50:05;6.20;99.90
19862;DHT22;10093;48.148;8.542;2023-12-28T03:52:31;6.60;99.90
19862;DHT22;10093;48.148;8.542;2023-12-28T03:54:57;7.00;99.90
19862;DHT22;10093;48.148;8.542;2023-12-28T03:57:23;6.90;99.90
19862;DHT22;10093;48.148;8.542;2023-12-28T03:59:48;7.10;99.90
19862;DHT22;10093;48.148;8.542;2023-12-28T04:02:14;6.90;99.90
19862;DHT22;10093;48.148;8.542;2023-12-28T04:04:39;6.70;99.90
19862;DHT22;10093;48.148;8.542;2023-12-28T04:07:05;6.70;99.90
19862;DHT22;10093;48.148;8.542;2023-12-28T04:09:33;6.70;99.90
19862;DHT22;10093;48.148;8.542;2023-12-28T04:11:59;7.00;99.90
19862;DHT22;10093;48.148;8.542;2023-12-28T04:14:24;7.50;99.90
19862;DHT22;10093;48.148;8.542;2023-12-28T04:16:50;7.30;99.90
19862;DHT22;10093;48.148;8.542;2023-12-28T04:19:16;6.90;99.90
19862;DHT22;10093;48.148;8.542;2023-12-28T04:21:44;6.80;99.90
19862;DHT22;10093;48.148;8.542;2023-12-28T04:24:10;6.50;99.90
19862;DHT22;10093;48.148;8.542;2023-12-28T04:26:35;6.30;99.90
19862;DHT22;10093;48.148;8.542;2023-12-28T04:29:02;6.40;99.90
19862;DHT22;10093;48.148;8.542;2023-12-28T04:31:27;6.30;99.90
19862;DHT22;10093;48.148;8.542;2023-12-28T04:33:53;6.70;99.90
19862;DHT22;10093;48.148;8.542;2023-12-28T04:36:18;6.70;99.90
19862;DHT22;10093;48.148;8.542;2023-12-28T04:38:44;6.80;99.90
19862;DHT22;10093;48.148;8.542;2023-12-28T04:41:10;6.70;99.90
19862;DHT22;10093;48.148;8.542;2023-12-28T04:43:37;6.40;99.90
19862;DHT22;10093;48.148;8.542;2023-12-28T04:46:04;6.40;99.90
19862;DHT22;10093;48.148;8.542;2023-12-28T04:48:31;6.60;99.90
19862;DHT22;10093;48.148;8.542;2023-12-28T04:50:56;6.50;99.90
19862;DHT22;10093;48.148;8.542;2023-12-28T04:53:22;6.40;99.90
19862;DHT22;10093;48.148;8.542;2023-12-28T04:55:47;6.30;99.90
19862;DHT22;10093;48.148;8.542;2023-12-28T04:58:13;6.30;99.90
19862;DHT22;10093;48.148;8.542;2023-12-28T05:00:39;6.00;99.90
19862;DHT22;10093;48.148;8.542;2023-12-28T05:03:05;5.90;99.90
19862;DHT22;10093;48.148;8.542;2023-12-28T05:05:31;5.80;99.90
19862;DHT22;10093;48.148;8.542;2023-12-28T05:07:57;5.80;99.90
19862;DHT22;10093;48.148;8.542;2023-12-28T05:10:23;5.80;99.90
19862;DHT22;10093;48.148;8.542;2023-12-28T05:12:48;5.60;99.90
19862;DHT22;10093;48.148;8.542;2023-12-28T05:15:14;5.50;99.90
19862;DHT22;10093;48.148;8.542;2023-12-28T05:17:40;5.60;99.90
19862;DHT22;10093;48.148;8.542;2023-12-28T05:20:07;6.10;99.90
19862;DHT22;10093;48.148;8.542;2023-12-28T05:22:32;6.30;99.90
19862;DHT22;10093;48.148;8.542;2023-12-28T05:24:58;6.70;99.90
19862;DHT22;10093;48.148;8.542;2023-12-28T05:27:24;6.90;99.90
19862;DHT22;10093;48.148;8.542;2023-12-28T05:29:49;7.10;99.90
19862;DHT22;10093;48.148;8.542;2023-12-28T05:32:15;7.10;99.90
19862;DHT22;10093;48.148;8.542;2023-12-28T05:34:41;7.20;99.90
19862;DHT22;10093;48.148;8.542;2023-12-28T05:37:06;7.10;99.90
19862;DHT22;10093;48.148;8.542;2023-12-28T05:39:32;7.10;99.90
19862;DHT22;10093;48.148;8.542;2023-12-28T05:41:58;7.00;99.90
19862;DHT22;10093;48.148;8.542;2023-12-28T05:44:23;6.90;99.90
19862;DHT22;10093;48.148;8.542;2023-12-28T05:46:49;6.60;99.90
19862;DHT22;10093;48.148;8.542;2023-12-28T05:49:14;6.50;99.90
19862;DHT22;10093;48.148;8.542;2023-12-28T05:51:41;6.40;99.90
19862;DHT22;10093;48.148;8.542;2023-12-28T05:54:07;6.60;99.90
19862;DHT22;10093;48.148;8.542;2023-12-28T05:56:32;6.50;99.90
19862;DHT22;10093;48.148;8.542;2023-12-28T05:58:58;6.50;99.90
19862;DHT22;10093;48.148;8.542;2023-12-28T06:01:24;6.50;99.90
19862;DHT22;10093;48.148;8.542;2023-12-28T06:03:50;6.50;99.90
19862;DHT22;10093;48.148;8.542;2023-12-28T06:06:18;6.40;99.90
19862;DHT22;10093;48.148;8.542;2023-12-28T06:08:43;6.20;99.90
19862;DHT22;10093;48.148;8.542;2023-12-28T06:11:09;6.10;99.90
19862;DHT22;10093;48.148;8.542;2023-12-28T06:13:35;5.90;99.90
19862;DHT22;10093;48.148;8.542;2023-12-28T06:16:01;5.90;99.90
19862;DHT22;10093;48.148;8.542;2023-12-28T06:18:26;5.90;99.90
19862;DHT22;10093;48.148;8.542;2023-12-28T06:20:52;5.80;99.90
19862;DHT22;10093;48.148;8.542;2023-12-28T06:23:18;5.80;99.90
19862;DHT22;10093;48.148;8.542;2023-12-28T06:25:43;5.90;99.90
19862;DHT22;10093;48.148;8.542;2023-12-28T06:28:09;5.80;99.90
19862;DHT22;10093;48.148;8.542;2023-12-28T06:30:34;5.70;99.90
19862;DHT22;10093;48.148;8.542;2023-12-28T06:33:00;5.70;99.90
19862;DHT22;10093;48.148;8.542;2023-12-28T06:35:26;5.50;99.90
19862;DHT22;10093;48.148;8.542;2023-12-28T06:37:51;5.70;99.90
19862;DHT22;10093;48.148;8.542;2023-12-28T06:40:17;5.70;99.90
19862;DHT22;10093;48.148;8.542;2023-12-28T06:42:42;5.80;99.90
19862;DHT22;10093;48.148;8.542;2023-12-28T06:45:09;5.90;99.90
19862;DHT22;10093;48.148;8.542;2023-12-28T06:47:35;6.00;99.90
19862;DHT22;10093;48.148;8.542;2023-12-28T06:50:00;6.10;99.90
19862;DHT22;10093;48.148;8.542;2023-12-28T06:52:26;6.10;99.90
19862;DHT22;10093;48.148;8.542;2023-12-28T06:54:52;6.10;99.90
19862;DHT22;10093;48.148;8.542;2023-12-28T06:57:18;6.10;99.90
19862;DHT22;10093;48.148;8.542;2023-12-28T06:59:44;6.10;99.90
19862;DHT22;10093;48.148;8.542;2023-12-28T07:02:10;6.10;99.90
19862;DHT22;10093;48.148;8.542;2023-12-28T07:04:35;6.10;99.90
19862;DHT22;10093;48.148;8.542;2023-12-28T07:07:01;6.20;99.90
19862;DHT22;10093;48.148;8.542;2023-12-28T07:09:27;6.30;99.90
19862;DHT22;10093;48.148;8.542;2023-12-28T07:11:52;6.30;99.90
19862;DHT22;10093;48.148;8.542;2023-12-28T07:14:18;6.30;99.90
19862;DHT22;10093;48.148;8.542;2023-12-28T07:16:43;6.30;99.90
19862;DHT22;10093;48.148;8.542;2023-12-28T07:19:09;6.40;99.90
19862;DHT22;10093;48.148;8.542;2023-12-28T07:21:35;6.50;99.90
19862;DHT22;10093;48.148;8.542;2023-12-28T07:24:00;6.50;99.90
19862;DHT22;10093;48.148;8.542;2023-12-28T07:26:26;6.50;99.90
19862;DHT22;10093;48.148;8.542;2023-12-28T07:28:51;6.50;99.90
19862;DHT22;10093;48.148;8.542;2023-12-28T07:31:27;6.50;99.90
19862;DHT22;10093;48.148;8.542;2023-12-28T07:33:54;6.50;99.90
19862;DHT22;10093;48.148;8.542;2023-12-28T07:36:20;6.50;99.90
19862;DHT22;10093;48.148;8.542;2023-12-28T07:38:46;6.40;99.90
19862;DHT22;10093;48.148;8.542;2023-12-28T07:41:12;6.40;99.90
19862;DHT22;10093;48.148;8.542;2023-12-28T07:43:37;6.40;99.90
19862;DHT22;10093;48.148;8.542;2023-12-28T07:46:03;6.40;99.90
19862;DHT22;10093;48.148;8.542;2023-12-28T07:48:30;6.50;99.90
19862;DHT22;10093;48.148;8.542;2023-12-28T07:50:56;6.50;99.90
19862;DHT22;10093;48.148;8.542;2023-12-28T07:53:22;6.50;99.90
19862;DHT22;10093;48.148;8.542;2023-12-28T07:55:48;6.50;99.90
19862;DHT22;10093;48.148;8.542;2023-12-28T07:58:14;6.40;99.90
19862;DHT22;10093;48.148;8.542;2023-12-28T08:00:40;6.40;99.90
19862;DHT22;10093;48.148;8.542;2023-12-28T08:03:05;6.50;99.90
19862;DHT22;10093;48.148;8.542;2023-12-28T08:05:31;6.50;99.90
19862;DHT22;10093;48.148;8.542;2023-12-28T08:07:57;6.60;99.90
19862;DHT22;10093;48.148;8.542;2023-12-28T08:10:22;6.50;99.90
19862;DHT22;10093;48.148;8.542;2023-12-28T08:12:48;6.60;99.90
19862;DHT22;10093;48.148;8.542;2023-12-28T08:15:13;6.60;99.90
19862;DHT22;10093;48.148;8.542;2023-12-28T08:17:39;6.50;99.90
19862;DHT22;10093;48.148;8.542;2023-12-28T08:20:06;6.40;99.90
19862;DHT22;10093;48.148;8.542;2023-12-28T08:22:32;6.40;99.90
19862;DHT22;10093;48.148;8.542;2023-12-28T08:24:57;6.30;99.90
19862;DHT22;10093;48.148;8.542;2023-12-28T08:27:23;6.20;99.90
19862;DHT22;10093;48.148;8.542;2023-12-28T08:29:49;6.20;99.90
19862;DHT22;10093;48.148;8.542;2023-12-28T08:32:15;6.30;99.90
19862;DHT22;10093;48.148;8.542;2023-12-28T08:34:42;6.20;99.90
19862;DHT22;10093;48.148;8.542;2023-12-28T08:37:08;6.20;99.90
19862;DHT22;10093;48.148;8.542;2023-12-28T08:39:34;6.20;99.90
19862;DHT22;10093;48.148;8.542;2023-12-28T08:42:00;6.30;99.90
19862;DHT22;10093;48.148;8.542;2023-12-28T08:44:25;6.30;99.90
19862;DHT22;10093;48.148;8.542;2023-12-28T08:46:51;6.40;99.90
19862;DHT22;10093;48.148;8.542;2023-12-28T08:49:17;6.50;99.90
19862;DHT22;10093;48.148;8.542;2023-12-28T08:51:42;6.40;99.90
19862;DHT22;10093;48.148;8.542;2023-12-28T08:54:08;6.40;99.90
19862;DHT22;10093;48.148;8.542;2023-12-28T08:56:34;6.50;99.90
19862;DHT22;10093;48.148;8.542;2023-12-28T08:59:00;6.50;99.90
19862;DHT22;10093;48.148;8.542;2023-12-28T09:01:26;6.50;99.90
19862;DHT22;10093;48.148;8.542;2023-12-28T09:03:53;6.70;99.90
19862;DHT22;10093;48.148;8.542;2023-12-28T09:06:20;6.50;99.90
19862;DHT22;10093;48.148;8.542;2023-12-28T09:08:48;6.50;99.90
19862;DHT22;10093;48.148;8.542;2023-12-28T09:11:14;6.50;99.90
19862;DHT22;10093;48.148;8.542;2023-12-28T09:13:40;6.60;99.90
19862;DHT22;10093;48.148;8.542;2023-12-28T09:16:09;6.70;99.90
19862;DHT22;10093;48.148;8.542;2023-12-28T09:18:35;7.00;99.90
19862;DHT22;10093;48.148;8.542;2023-12-28T09:21:03;7.10;99.90
19862;DHT22;10093;48.148;8.542;2023-12-28T09:23:29;7.20;99.90
19862;DHT22;10093;48.148;8.542;2023-12-28T09:25:54;7.20;99.90
19862;DHT22;10093;48.148;8.542;2023-12-28T09:28:20;7.30;99.90
19862;DHT22;10093;48.148;8.542;2023-12-28T09:30:46;7.70;99.90
19862;DHT22;10093;48.148;8.542;2023-12-28T09:33:11;7.90;99.90
19862;DHT22;10093;48.148;8.542;2023-12-28T09:35:37;8.10;99.90
19862;DHT22;10093;48.148;8.542;2023-12-28T09:38:03;8.10;99.90
19862;DHT22;10093;48.148;8.542;2023-12-28T09:40:28;8.10;99.90
19862;DHT22;10093;48.148;8.542;2023-12-28T09:43:19;8.50;99.90
19862;DHT22;10093;48.148;8.542;2023-12-28T09:45:50;8.60;99.90
19862;DHT22;10093;48.148;8.542;2023-12-28T09:48:16;8.80;99.90
19862;DHT22;10093;48.148;8.542;2023-12-28T09:50:52;8.90;99.90
19862;DHT22;10093;48.148;8.542;2023-12-28T09:53:24;9.00;99.90
19862;DHT22;10093;48.148;8.542;2023-12-28T09:55:51;9.00;99.90
19862;DHT22;10093;48.148;8.542;2023-12-28T09:58:18;9.10;99.90
19862;DHT22;10093;48.148;8.542;2023-12-28T10:00:48;9.20;99.90
19862;DHT22;10093;48.148;8.542;2023-12-28T10:03:14;9.20;99.90
19862;DHT22;10093;48.148;8.542;2023-12-28T10:05:41;9.20;99.90
19862;DHT22;10093;48.148;8.542;2023-12-28T10:08:07;9.40;99.90
19862;DHT22;10093;48.148;8.542;2023-12-28T10:10:32;9.60;99.90
19862;DHT22;10093;48.148;8.542;2023-12-28T10:12:59;9.70;99.90
19862;DHT22;10093;48.148;8.542;2023-12-28T10:15:25;9.80;99.90
19862;DHT22;10093;48.148;8.542;2023-12-28T10:17:52;9.80;99.90
19862;DHT22;10093;48.148;8.542;2023-12-28T10:20:17;9.80;99.90
19862;DHT22;10093;48.148;8.542;2023-12-28T10:22:43;10.10;99.90
19862;DHT22;10093;48.148;8.542;2023-12-28T10:25:09;10.30;99.90
19862;DHT22;10093;48.148;8.542;2023-12-28T10:27:41;10.50;99.90
19862;DHT22;10093;48.148;8.542;2023-12-28T10:30:08;10.70;99.90
19862;DHT22;10093;48.148;8.542;2023-12-28T10:32:34;10.80;99.90
19862;DHT22;10093;48.148;8.542;2023-12-28T10:34:59;10.80;99.90
19862;DHT22;10093;48.148;8.542;2023-12-28T10:37:26;10.80;99.90
19862;DHT22;10093;48.148;8.542;2023-12-28T10:39:53;10.90;99.90
19862;DHT22;10093;48.148;8.542;2023-12-28T10:45:10;10.80;99.90
19862;DHT22;10093;48.148;8.542;2023-12-28T10:47:46;10.80;99.90
19862;DHT22;10093;48.148;8.542;2023-12-28T10:50:12;11.10;99.90
19862;DHT22;10093;48.148;8.542;2023-12-28T10:52:39;11.50;99.90
19862;DHT22;10093;48.148;8.542;2023-12-28T10:58:00;11.70;99.90
19862;DHT22;10093;48.148;8.542;2023-12-28T11:00:32;11.50;99.90
19862;DHT22;10093;48.148;8.542;2023-12-28T11:03:02;11.40;99.90
19862;DHT22;10093;48.148;8.542;2023-12-28T11:05:29;11.20;99.90
19862;DHT22;10093;48.148;8.542;2023-12-28T11:07:56;11.10;99.90
19862;DHT22;10093;48.148;8.542;2023-12-28T11:10:24;11.10;99.90
19862;DHT22;10093;48.148;8.542;2023-12-28T11:12:54;11.00;99.90
19862;DHT22;10093;48.148;8.542;2023-12-28T11:15:21;10.90;99.90
19862;DHT22;10093;48.148;8.542;2023-12-28T11:17:49;10.90;99.90
19862;DHT22;10093;48.148;8.542;2023-12-28T11:20:14;11.00;99.90
19862;DHT22;10093;48.148;8.542;2023-12-28T11:22:42;11.00;99.90
19862;DHT22;10093;48.148;8.542;2023-12-28T11:25:15;11.00;99.90
19862;DHT22;10093;48.148;8.542;2023-12-28T11:27:40;11.10;99.90
19862;DHT22;10093;48.148;8.542;2023-12-28T11:30:07;11.10;99.90
19862;DHT22;10093;48.148;8.542;2023-12-28T11:32:42;10.80;99.90
19862;DHT22;10093;48.148;8.542;2023-12-28T11:35:12;10.90;99.90
19862;DHT22;10093;48.148;8.542;2023-12-28T11:37:42;11.00;99.90
19862;DHT22;10093;48.148;8.542;2023-12-28T11:40:12;11.00;99.90
19862;DHT22;10093;48.148;8.542;2023-12-28T11:42:52;10.90;99.90
19862;DHT22;10093;48.148;8.542;2023-12-28T11:45:19;11.00;99.90
19862;DHT22;10093;48.148;8.542;2023-12-28T11:47:45;11.30;99.90
19862;DHT22;10093;48.148;8.542;2023-12-28T11:50:11;11.40;99.90
19862;DHT22;10093;48.148;8.542;2023-12-28T11:52:37;11.80;99.90
19862;DHT22;10093;48.148;8.542;2023-12-28T11:55:03;12.00;99.90
19862;DHT22;10093;48.148;8.542;2023-12-28T11:57:30;12.10;99.90
19862;DHT22;10093;48.148;8.542;2023-12-28T11:59:57;12.00;99.90
19862;DHT22;10093;48.148;8.542;2023-12-28T12:02:24;12.00;99.90
19862;DHT22;10093;48.148;8.542;2023-12-28T12:04:49;11.70;99.90
19862;DHT22;10093;48.148;8.542;2023-12-28T12:07:15;11.40;99.90
19862;DHT22;10093;48.148;8.542;2023-12-28T12:09:42;11.20;99.90
19862;DHT22;10093;48.148;8.542;2023-12-28T12:12:08;10.90;99.90
19862;DHT22;10093;48.148;8.542;2023-12-28T12:14:34;10.80;99.90
19862;DHT22;10093;48.148;8.542;2023-12-28T12:17:00;10.60;99.90
19862;DHT22;10093;48.148;8.542;2023-12-28T12:19:26;10.50;99.90
19862;DHT22;10093;48.148;8.542;2023-12-28T12:21:52;10.50;99.90
19862;DHT22;10093;48.148;8.542;2023-12-28T12:24:18;10.40;99.90
19862;DHT22;10093;48.148;8.542;2023-12-28T12:26:46;10.20;99.90
19862;DHT22;10093;48.148;8.542;2023-12-28T12:29:12;10.10;99.90
19862;DHT22;10093;48.148;8.542;2023-12-28T12:31:38;10.00;99.90
19862;DHT22;10093;48.148;8.542;2023-12-28T12:34:07;9.90;99.90
19862;DHT22;10093;48.148;8.542;2023-12-28T12:36:33;9.90;99.90
19862;DHT22;10093;48.148;8.542;2023-12-28T12:38:59;9.90;99.90
19862;DHT22;10093;48.148;8.542;2023-12-28T12:41:26;9.80;99.90
19862;DHT22;10093;48.148;8.542;2023-12-28T12:43:52;9.90;99.90
19862;DHT22;10093;48.148;8.542;2023-12-28T12:46:18;9.80;99.90
19862;DHT22;10093;48.148;8.542;2023-12-28T12:49:02;9.80;99.90
19862;DHT22;10093;48.148;8.542;2023-12-28T12:51:29;9.70;99.90
19862;DHT22;10093;48.148;8.542;2023-12-28T12:53:58;9.60;99.90
19862;DHT22;10093;48.148;8.542;2023-12-28T12:56:26;9.70;99.90
19862;DHT22;10093;48.148;8.542;2023-12-28T12:58:52;9.80;99.90
19862;DHT22;10093;48.148;8.542;2023-12-28T13:01:18;9.80;99.90
19862;DHT22;10093;48.148;8.542;2023-12-28T13:03:45;9.70;99.90
19862;DHT22;10093;48.148;8.542;2023-12-28T13:06:11;9.60;99.90
19862;DHT22;10093;48.148;8.542;2023-12-28T13:08:37;9.60;99.90
19862;DHT22;10093;48.148;8.542;2023-12-28T13:11:03;9.50;99.90
19862;DHT22;10093;48.148;8.542;2023-12-28T13:13:28;9.40;99.90
19862;DHT22;10093;48.148;8.542;2023-12-28T13:15:54;9.50;99.90
19862;DHT22;10093;48.148;8.542;2023-12-28T13:18:19;9.50;99.90
19862;DHT22;10093;48.148;8.542;2023-12-28T13:20:45;9.50;99.90
19862;DHT22;10093;48.148;8.542;2023-12-28T13:23:11;9.30;99.90
19862;DHT22;10093;48.148;8.542;2023-12-28T13:25:37;9.20;99.90
19862;DHT22;10093;48.148;8.542;2023-12-28T13:28:03;9.10;99.90
19862;DHT22;10093;48.148;8.542;2023-12-28T13:30:29;9.10;99.90
19862;DHT22;10093;48.148;8.542;2023-12-28T13:32:55;9.10;99.90
19862;DHT22;10093;48.148;8.542;2023-12-28T13:35:23;9.10;99.90
19862;DHT22;10093;48.148;8.542;2023-12-28T13:37:49;9.10;99.90
19862;DHT22;10093;48.148;8.542;2023-12-28T13:40:14;9.00;99.90
19862;DHT22;10093;48.148;8.542;2023-12-28T13:42:41;9.10;99.90
19862;DHT22;10093;48.148;8.542;2023-12-28T13:45:07;9.10;99.90
19862;DHT22;10093;48.148;8.542;2023-12-28T13:47:32;9.00;99.90
19862;DHT22;10093;48.148;8.542;2023-12-28T13:49:58;8.90;99.90
19862;DHT22;10093;48.148;8.542;2023-12-28T13:52:23;8.80;99.90
19862;DHT22;10093;48.148;8.542;2023-12-28T13:54:49;8.70;99.90
19862;DHT22;10093;48.148;8.542;2023-12-28T13:57:15;8.70;99.90
19862;DHT22;10093;48.148;8.542;2023-12-28T13:59:40;8.60;99.90
19862;DHT22;10093;48.148;8.542;2023-12-28T14:02:06;8.60;99.90
19862;DHT22;10093;48.148;8.542;2023-12-28T14:04:31;8.50;99.90
19862;DHT22;10093;48.148;8.542;2023-12-28T14:06:57;8.40;99.90
19862;DHT22;10093;48.148;8.542;2023-12-28T14:09:23;8.50;99.90
19862;DHT22;10093;48.148;8.542;2023-12-28T14:11:48;8.40;99.90
19862;DHT22;10093;48.148;8.542;2023-12-28T14:14:14;8.30;99.90
19862;DHT22;10093;48.148;8.542;2023-12-28T14:16:40;8.30;99.90
19862;DHT22;10093;48.148;8.542;2023-12-28T14:19:06;8.20;99.90
19862;DHT22;10093;48.148;8.542;2023-12-28T14:21:36;8.10;99.90
19862;DHT22;10093;48.148;8.542;2023-12-28T14:24:03;8.00;99.90
19862;DHT22;10093;48.148;8.542;2023-12-28T14:26:29;8.00;99.90
19862;DHT22;10093;48.148;8.542;2023-12-28T14:28:57;8.00;99.90
19862;DHT22;10093;48.148;8.542;2023-12-28T14:31:22;8.00;99.90
19862;DHT22;10093;48.148;8.542;2023-12-28T14:33:48;8.00;99.90
19862;DHT22;10093;48.148;8.542;2023-12-28T14:36:34;8.00;99.90
19862;DHT22;10093;48.148;8.542;2023-12-28T14:39:06;8.10;99.90
19862;DHT22;10093;48.148;8.542;2023-12-28T14:41:33;8.00;99.90
19862;DHT22;10093;48.148;8.542;2023-12-28T14:43:59;8.10;99.90
19862;DHT22;10093;48.148;8.542;2023-12-28T14:46:25;8.10;99.90
19862;DHT22;10093;48.148;8.542;2023-12-28T14:48:51;8.20;99.90
19862;DHT22;10093;48.148;8.542;2023-12-28T14:51:17;8.20;99.90
19862;DHT22;10093;48.148;8.542;2023-12-28T14:53:42;8.20;99.90
19862;DHT22;10093;48.148;8.542;2023-12-28T14:56:08;8.30;99.90
19862;DHT22;10093;48.148;8.542;2023-12-28T14:58:34;8.30;99.90
19862;DHT22;10093;48.148;8.542;2023-12-28T15:00:59;8.30;99.90
19862;DHT22;10093;48.148;8.542;2023-12-28T15:03:25;8.30;99.90
19862;DHT22;10093;48.148;8.542;2023-12-28T15:05:51;8.30;99.90
19862;DHT22;10093;48.148;8.542;2023-12-28T15:08:17;8.30;99.90
19862;DHT22;10093;48.148;8.542;2023-12-28T15:10:44;8.20;99.90
19862;DHT22;10093;48.148;8.542;2023-12-28T15:13:10;8.20;99.90
19862;DHT22;10093;48.148;8.542;2023-12-28T15:15:36;8.20;99.90
19862;DHT22;10093;48.148;8.542;2023-12-28T15:18:02;8.10;99.90
19862;DHT22;10093;48.148;8.542;2023-12-28T15:20:28;8.10;99.90
19862;DHT22;10093;48.148;8.542;2023-12-28T15:22:55;8.20;99.90
19862;DHT22;10093;48.148;8.542;2023-12-28T15:25:21;8.10;99.90
19862;DHT22;10093;48.148;8.542;2023-12-28T15:27:47;8.10;99.90
19862;DHT22;10093;48.148;8.542;2023-12-28T15:30:13;8.10;99.90
19862;DHT22;10093;48.148;8.542;2023-12-28T15:32:39;8.10;99.90
19862;DHT22;10093;48.148;8.542;2023-12-28T15:35:06;8.10;99.90
19862;DHT22;10093;48.148;8.542;2023-12-28T15:37:32;8.10;99.90
19862;DHT22;10093;48.148;8.542;2023-12-28T15:39:58;8.10;99.90
19862;DHT22;10093;48.148;8.542;2023-12-28T15:42:23;8.10;99.90
19862;DHT22;10093;48.148;8.542;2023-12-28T15:44:49;8.10;99.90